sensor_id;sensor_type;location;lat;lon;timestamp;temperature;humidity
20759;DHT22;10539;53.686;9.158;2023-04-03T00:01:36;3.00;99.90
20759;DHT22;10539;53.686;9.158;2023-04-03T00:04:05;3.00;99.90
20759;DHT22;10539;53.686;9.158;2023-04-03T00:06:31;2.90;99.90
20759;DHT22;10539;53.686;9.158;2023-04-03T00:08:57;2.90;99.90
20759;DHT22;10539;53.686;9.158;2023-04-03T00:11:23;2.90;99.90
20759;DHT22;10539;53.686;9.158;2023-04-03T00:13:50;2.80;99.90
20759;DHT22;10539;53.686;9.158;2023-04-03T00:16:16;2.80;99.90
20759;DHT22;10539;53.686;9.158;2023-04-03T00:18:42;2.80;99.90
20759;DHT22;10539;53.686;9.158;2023-04-03T00:21:12;2.80;99.90
20759;DHT22;10539;53.686;9.158;2023-04-03T00:23:38;2.80;99.90
20759;DHT22;10539;53.686;9.158;2023-04-03T00:26:04;2.70;99.90
20759;DHT22;10539;53.686;9.158;2023-04-03T00:28:30;2.70;99.90
20759;DHT22;10539;53.686;9.158;2023-04-03T00:30:56;2.70;99.90
20759;DHT22;10539;53.686;9.158;2023-04-03T00:33:21;2.70;99.90
20759;DHT22;10539;53.686;9.158;2023-04-03T00:35:48;2.70;99.90
20759;DHT22;10539;53.686;9.158;2023-04-03T00:38:14;2.70;99.90
20759;DHT22;10539;53.686;9.158;2023-04-03T00:40:43;2.70;99.90
20759;DHT22;10539;53.686;9.158;2023-04-03T00:43:15;2.70;99.90
20759;DHT22;10539;53.686;9.158;2023-04-03T00:45:44;2.70;99.90
20759;DHT22;10539;53.686;9.158;2023-04-03T00:48:17;2.60;99.90
20759;DHT22;10539;53.686;9.158;2023-04-03T00:50:44;2.60;99.90
20759;DHT22;10539;53.686;9.158;2023-04-03T00:53:14;2.60;99.90
20759;DHT22;10539;53.686;9.158;2023-04-03T00:55:42;2.60;99.90
20759;DHT22;10539;53.686;9.158;2023-04-03T00:58:08;2.60;99.90
20759;DHT22;10539;53.686;9.158;2023-04-03T01:00:37;2.60;99.90
20759;DHT22;10539;53.686;9.158;2023-04-03T01:03:04;2.60;99.90
20759;DHT22;10539;53.686;9.158;2023-04-03T01:05:32;2.50;99.90
20759;DHT22;10539;53.686;9.158;2023-04-03T01:07:59;2.40;99.90
20759;DHT22;10539;53.686;9.158;2023-04-03T01:10:25;2.40;99.90
20759;DHT22;10539;53.686;9.158;2023-04-03T01:12:51;2.40;99.90
20759;DHT22;10539;53.686;9.158;2023-04-03T01:15:23;2.40;99.90
20759;DHT22;10539;53.686;9.158;2023-04-03T01:17:52;2.40;99.90
20759;DHT22;10539;53.686;9.158;2023-04-03T01:25:36;2.50;99.90
20759;DHT22;10539;53.686;9.158;2023-04-03T01:28:04;2.40;99.90
20759;DHT22;10539;53.686;9.158;2023-04-03T01:30:36;2.40;99.90
20759;DHT22;10539;53.686;9.158;2023-04-03T01:33:05;2.40;99.90
20759;DHT22;10539;53.686;9.158;2023-04-03T01:35:30;2.40;99.90
20759;DHT22;10539;53.686;9.158;2023-04-03T01:37:56;2.30;99.90
20759;DHT22;10539;53.686;9.158;2023-04-03T01:40:22;2.30;99.90
20759;DHT22;10539;53.686;9.158;2023-04-03T01:42:48;2.40;99.90
20759;DHT22;10539;53.686;9.158;2023-04-03T01:45:14;2.30;99.90
20759;DHT22;10539;53.686;9.158;2023-04-03T01:47:40;2.30;99.90
20759;DHT22;10539;53.686;9.158;2023-04-03T01:50:07;2.30;99.90
20759;DHT22;10539;53.686;9.158;2023-04-03T01:52:33;2.30;99.90
20759;DHT22;10539;53.686;9.158;2023-04-03T01:54:58;2.30;99.90
20759;DHT22;10539;53.686;9.158;2023-04-03T01:57:24;2.30;99.90
20759;DHT22;10539;53.686;9.158;2023-04-03T01:59:50;2.30;99.90
20759;DHT22;10539;53.686;9.158;2023-04-03T02:02:17;2.30;99.90
20759;DHT22;10539;53.686;9.158;2023-04-03T02:04:43;2.30;99.90
20759;DHT22;10539;53.686;9.158;2023-04-03T02:07:08;2.30;99.90
20759;DHT22;10539;53.686;9.158;2023-04-03T02:09:34;2.20;99.90
20759;DHT22;10539;53.686;9.158;2023-04-03T02:12:00;2.20;99.90
20759;DHT22;10539;53.686;9.158;2023-04-03T02:14:26;2.20;99.90
20759;DHT22;10539;53.686;9.158;2023-04-03T02:16:53;2.20;99.90
20759;DHT22;10539;53.686;9.158;2023-04-03T02:19:18;2.20;99.90
20759;DHT22;10539;53.686;9.158;2023-04-03T02:21:44;2.20;99.90
20759;DHT22;10539;53.686;9.158;2023-04-03T02:24:10;2.20;99.90
20759;DHT22;10539;53.686;9.158;2023-04-03T02:26:35;2.20;99.90
20759;DHT22;10539;53.686;9.158;2023-04-03T02:29:01;2.20;99.90
20759;DHT22;10539;53.686;9.158;2023-04-03T02:31:27;2.20;99.90
20759;DHT22;10539;53.686;9.158;2023-04-03T02:33:52;2.20;99.90
20759;DHT22;10539;53.686;9.158;2023-04-03T02:36:18;2.20;99.90
20759;DHT22;10539;53.686;9.158;2023-04-03T02:38:44;2.20;99.90
20759;DHT22;10539;53.686;9.158;2023-04-03T02:41:12;2.20;99.90
20759;DHT22;10539;53.686;9.158;2023-04-03T02:43:38;2.20;99.90
20759;DHT22;10539;53.686;9.158;2023-04-03T02:46:05;2.10;99.90
20759;DHT22;10539;53.686;9.158;2023-04-03T02:48:31;2.10;99.90
20759;DHT22;10539;53.686;9.158;2023-04-03T02:50:57;2.00;99.90
20759;DHT22;10539;53.686;9.158;2023-04-03T02:53:22;2.00;99.90
20759;DHT22;10539;53.686;9.158;2023-04-03T02:55:48;2.00;99.90
20759;DHT22;10539;53.686;9.158;2023-04-03T02:58:14;1.90;99.90
20759;DHT22;10539;53.686;9.158;2023-04-03T03:00:40;2.00;99.90
20759;DHT22;10539;53.686;9.158;2023-04-03T03:03:06;2.00;99.90
20759;DHT22;10539;53.686;9.158;2023-04-03T03:05:32;2.00;99.90
20759;DHT22;10539;53.686;9.158;2023-04-03T03:07:58;2.00;99.90
20759;DHT22;10539;53.686;9.158;2023-04-03T03:10:24;2.00;99.90
20759;DHT22;10539;53.686;9.158;2023-04-03T03:12:50;1.90;99.90
20759;DHT22;10539;53.686;9.158;2023-04-03T03:15:16;1.90;99.90
20759;DHT22;10539;53.686;9.158;2023-04-03T03:17:42;1.80;99.90
20759;DHT22;10539;53.686;9.158;2023-04-03T03:20:08;1.80;99.90
20759;DHT22;10539;53.686;9.158;2023-04-03T03:22:42;1.80;99.90
20759;DHT22;10539;53.686;9.158;2023-04-03T03:25:08;1.80;99.90
20759;DHT22;10539;53.686;9.158;2023-04-03T03:27:34;1.80;99.90
20759;DHT22;10539;53.686;9.158;2023-04-03T03:30:00;1.80;99.90
20759;DHT22;10539;53.686;9.158;2023-04-03T03:32:26;1.90;99.90
20759;DHT22;10539;53.686;9.158;2023-04-03T03:34:52;1.90;99.90
20759;DHT22;10539;53.686;9.158;2023-04-03T03:37:18;1.80;99.90
20759;DHT22;10539;53.686;9.158;2023-04-03T03:39:44;1.80;99.90
20759;DHT22;10539;53.686;9.158;2023-04-03T03:42:10;1.80;99.90
20759;DHT22;10539;53.686;9.158;2023-04-03T03:44:36;1.80;99.90
20759;DHT22;10539;53.686;9.158;2023-04-03T03:47:02;1.80;99.90
20759;DHT22;10539;53.686;9.158;2023-04-03T03:49:28;1.80;99.90
20759;DHT22;10539;53.686;9.158;2023-04-03T03:51:54;1.80;99.90
20759;DHT22;10539;53.686;9.158;2023-04-03T03:54:20;1.80;99.90
20759;DHT22;10539;53.686;9.158;2023-04-03T03:56:46;1.80;99.90
20759;DHT22;10539;53.686;9.158;2023-04-03T03:59:12;1.80;99.90
20759;DHT22;10539;53.686;9.158;2023-04-03T04:01:38;1.80;99.90
20759;DHT22;10539;53.686;9.158;2023-04-03T04:04:04;1.70;99.90
20759;DHT22;10539;53.686;9.158;2023-04-03T04:06:30;1.70;99.90
20759;DHT22;10539;53.686;9.158;2023-04-03T04:08:56;1.70;99.90
20759;DHT22;10539;53.686;9.158;2023-04-03T04:11:21;1.70;99.90
20759;DHT22;10539;53.686;9.158;2023-04-03T04:13:47;1.70;99.90
20759;DHT22;10539;53.686;9.158;2023-04-03T04:16:13;1.70;99.90
20759;DHT22;10539;53.686;9.158;2023-04-03T04:18:39;1.60;99.90
20759;DHT22;10539;53.686;9.158;2023-04-03T04:21:04;1.60;99.90
20759;DHT22;10539;53.686;9.158;2023-04-03T04:23:30;1.60;99.90
20759;DHT22;10539;53.686;9.158;2023-04-03T04:25:56;1.60;99.90
20759;DHT22;10539;53.686;9.158;2023-04-03T04:28:22;1.60;99.90
20759;DHT22;10539;53.686;9.158;2023-04-03T04:30:47;1.60;99.90
20759;DHT22;10539;53.686;9.158;2023-04-03T04:33:13;1.60;99.90
20759;DHT22;10539;53.686;9.158;2023-04-03T04:35:42;1.60;99.90
20759;DHT22;10539;53.686;9.158;2023-04-03T04:38:08;1.60;99.90
20759;DHT22;10539;53.686;9.158;2023-04-03T04:40:34;1.50;99.90
20759;DHT22;10539;53.686;9.158;2023-04-03T04:43:01;1.50;99.90
20759;DHT22;10539;53.686;9.158;2023-04-03T04:45:26;1.50;99.90
20759;DHT22;10539;53.686;9.158;2023-04-03T04:47:55;1.50;99.90
20759;DHT22;10539;53.686;9.158;2023-04-03T04:50:21;1.50;99.90
20759;DHT22;10539;53.686;9.158;2023-04-03T04:52:47;1.50;99.90
20759;DHT22;10539;53.686;9.158;2023-04-03T04:55:12;1.50;99.90
20759;DHT22;10539;53.686;9.158;2023-04-03T04:57:38;1.50;99.90
20759;DHT22;10539;53.686;9.158;2023-04-03T05:00:05;1.60;99.90
20759;DHT22;10539;53.686;9.158;2023-04-03T05:02:31;1.60;99.90
20759;DHT22;10539;53.686;9.158;2023-04-03T05:04:57;1.60;99.90
20759;DHT22;10539;53.686;9.158;2023-04-03T05:07:22;1.60;99.90
20759;DHT22;10539;53.686;9.158;2023-04-03T05:09:48;1.60;99.90
20759;DHT22;10539;53.686;9.158;2023-04-03T05:12:14;1.70;99.90
20759;DHT22;10539;53.686;9.158;2023-04-03T05:14:40;1.70;99.90
20759;DHT22;10539;53.686;9.158;2023-04-03T05:17:05;1.70;99.90
20759;DHT22;10539;53.686;9.158;2023-04-03T05:19:31;1.70;99.90
20759;DHT22;10539;53.686;9.158;2023-04-03T05:21:57;1.70;99.90
20759;DHT22;10539;53.686;9.158;2023-04-03T05:24:22;1.80;99.90
20759;DHT22;10539;53.686;9.158;2023-04-03T05:26:48;1.80;99.90
20759;DHT22;10539;53.686;9.158;2023-04-03T05:29:14;1.80;99.90
20759;DHT22;10539;53.686;9.158;2023-04-03T05:31:40;1.90;99.90
20759;DHT22;10539;53.686;9.158;2023-04-03T05:34:06;1.90;99.90
20759;DHT22;10539;53.686;9.158;2023-04-03T05:36:32;1.90;99.90
20759;DHT22;10539;53.686;9.158;2023-04-03T05:38:57;2.00;99.90
20759;DHT22;10539;53.686;9.158;2023-04-03T05:41:23;2.00;99.90
20759;DHT22;10539;53.686;9.158;2023-04-03T05:43:51;2.00;99.90
20759;DHT22;10539;53.686;9.158;2023-04-03T05:46:19;2.00;99.90
20759;DHT22;10539;53.686;9.158;2023-04-03T05:48:45;2.00;99.90
20759;DHT22;10539;53.686;9.158;2023-04-03T05:51:18;2.10;99.90
20759;DHT22;10539;53.686;9.158;2023-04-03T05:53:44;2.10;99.90
20759;DHT22;10539;53.686;9.158;2023-04-03T05:56:10;2.20;99.90
20759;DHT22;10539;53.686;9.158;2023-04-03T05:58:37;2.20;99.90
20759;DHT22;10539;53.686;9.158;2023-04-03T06:01:02;2.20;99.90
20759;DHT22;10539;53.686;9.158;2023-04-03T06:03:28;2.30;99.90
20759;DHT22;10539;53.686;9.158;2023-04-03T06:05:54;2.30;99.90
20759;DHT22;10539;53.686;9.158;2023-04-03T06:08:20;2.30;99.90
20759;DHT22;10539;53.686;9.158;2023-04-03T06:10:46;2.40;99.90
20759;DHT22;10539;53.686;9.158;2023-04-03T06:13:12;2.40;99.90
20759;DHT22;10539;53.686;9.158;2023-04-03T06:15:38;2.40;99.90
20759;DHT22;10539;53.686;9.158;2023-04-03T06:18:06;2.50;99.90
20759;DHT22;10539;53.686;9.158;2023-04-03T06:20:32;2.50;99.90
20759;DHT22;10539;53.686;9.158;2023-04-03T06:22:58;2.60;99.90
20759;DHT22;10539;53.686;9.158;2023-04-03T06:25:24;2.60;99.90
20759;DHT22;10539;53.686;9.158;2023-04-03T06:27:49;2.60;99.90
20759;DHT22;10539;53.686;9.158;2023-04-03T06:30:15;2.60;99.90
20759;DHT22;10539;53.686;9.158;2023-04-03T06:32:41;2.70;99.90
20759;DHT22;10539;53.686;9.158;2023-04-03T06:35:08;2.70;99.90
20759;DHT22;10539;53.686;9.158;2023-04-03T06:37:34;2.80;99.90
20759;DHT22;10539;53.686;9.158;2023-04-03T06:40:00;3.40;99.90
20759;DHT22;10539;53.686;9.158;2023-04-03T06:42:26;4.40;99.90
20759;DHT22;10539;53.686;9.158;2023-04-03T06:44:52;5.30;99.90
20759;DHT22;10539;53.686;9.158;2023-04-03T06:47:18;5.90;99.90
20759;DHT22;10539;53.686;9.158;2023-04-03T06:49:44;6.50;99.90
20759;DHT22;10539;53.686;9.158;2023-04-03T06:52:10;6.90;99.90
20759;DHT22;10539;53.686;9.158;2023-04-03T06:54:38;7.20;99.90
20759;DHT22;10539;53.686;9.158;2023-04-03T06:57:03;7.30;99.90
20759;DHT22;10539;53.686;9.158;2023-04-03T06:59:29;7.50;99.90
20759;DHT22;10539;53.686;9.158;2023-04-03T07:01:55;7.70;99.90
20759;DHT22;10539;53.686;9.158;2023-04-03T07:04:21;7.90;99.90
20759;DHT22;10539;53.686;9.158;2023-04-03T07:06:47;8.10;99.90
20759;DHT22;10539;53.686;9.158;2023-04-03T07:09:14;8.10;99.90
20759;DHT22;10539;53.686;9.158;2023-04-03T07:11:40;8.10;99.90
20759;DHT22;10539;53.686;9.158;2023-04-03T07:14:06;8.20;99.90
20759;DHT22;10539;53.686;9.158;2023-04-03T07:16:34;8.30;99.90
20759;DHT22;10539;53.686;9.158;2023-04-03T07:19:01;8.20;99.90
20759;DHT22;10539;53.686;9.158;2023-04-03T07:21:27;8.40;99.90
20759;DHT22;10539;53.686;9.158;2023-04-03T07:23:54;8.50;99.90
20759;DHT22;10539;53.686;9.158;2023-04-03T07:26:21;8.90;99.90
20759;DHT22;10539;53.686;9.158;2023-04-03T07:28:48;9.20;99.90
20759;DHT22;10539;53.686;9.158;2023-04-03T07:31:16;9.10;99.90
20759;DHT22;10539;53.686;9.158;2023-04-03T07:33:44;8.80;99.90
20759;DHT22;10539;53.686;9.158;2023-04-03T07:36:14;8.80;99.90
20759;DHT22;10539;53.686;9.158;2023-04-03T07:38:40;9.10;99.90
20759;DHT22;10539;53.686;9.158;2023-04-03T07:41:06;9.10;99.90
20759;DHT22;10539;53.686;9.158;2023-04-03T07:43:32;9.20;99.90
20759;DHT22;10539;53.686;9.158;2023-04-03T07:45:58;9.00;99.90
20759;DHT22;10539;53.686;9.158;2023-04-03T07:48:25;9.00;99.90
20759;DHT22;10539;53.686;9.158;2023-04-03T07:50:51;9.00;99.90
20759;DHT22;10539;53.686;9.158;2023-04-03T07:53:17;8.50;99.90
20759;DHT22;10539;53.686;9.158;2023-04-03T07:55:46;7.90;99.90
20759;DHT22;10539;53.686;9.158;2023-04-03T07:58:17;7.40;99.90
20759;DHT22;10539;53.686;9.158;2023-04-03T08:00:43;7.30;99.90
20759;DHT22;10539;53.686;9.158;2023-04-03T08:03:10;7.40;99.90
20759;DHT22;10539;53.686;9.158;2023-04-03T08:05:44;7.50;99.90
20759;DHT22;10539;53.686;9.158;2023-04-03T08:08:11;7.50;99.90
20759;DHT22;10539;53.686;9.158;2023-04-03T08:10:38;7.80;99.90
20759;DHT22;10539;53.686;9.158;2023-04-03T08:13:06;8.00;99.90
20759;DHT22;10539;53.686;9.158;2023-04-03T08:15:32;7.80;99.90
20759;DHT22;10539;53.686;9.158;2023-04-03T08:17:59;7.70;99.90
20759;DHT22;10539;53.686;9.158;2023-04-03T08:20:26;7.70;99.90
20759;DHT22;10539;53.686;9.158;2023-04-03T08:22:52;7.50;99.90
20759;DHT22;10539;53.686;9.158;2023-04-03T08:25:18;7.50;99.90
20759;DHT22;10539;53.686;9.158;2023-04-03T08:27:44;7.40;99.90
20759;DHT22;10539;53.686;9.158;2023-04-03T08:30:11;7.40;99.90
20759;DHT22;10539;53.686;9.158;2023-04-03T08:32:37;7.40;99.90
20759;DHT22;10539;53.686;9.158;2023-04-03T08:35:04;7.20;99.90
20759;DHT22;10539;53.686;9.158;2023-04-03T08:37:35;7.20;99.90
20759;DHT22;10539;53.686;9.158;2023-04-03T08:40:01;7.20;99.90
20759;DHT22;10539;53.686;9.158;2023-04-03T08:45:27;7.30;99.90
20759;DHT22;10539;53.686;9.158;2023-04-03T08:48:06;7.40;99.90
20759;DHT22;10539;53.686;9.158;2023-04-03T08:50:43;7.40;99.90
20759;DHT22;10539;53.686;9.158;2023-04-03T08:53:20;7.50;99.90
20759;DHT22;10539;53.686;9.158;2023-04-03T08:55:51;7.50;99.90
20759;DHT22;10539;53.686;9.158;2023-04-03T08:58:26;7.50;99.90
20759;DHT22;10539;53.686;9.158;2023-04-03T09:01:01;7.40;99.90
20759;DHT22;10539;53.686;9.158;2023-04-03T09:03:34;7.30;99.90
20759;DHT22;10539;53.686;9.158;2023-04-03T09:06:37;7.30;99.90
20759;DHT22;10539;53.686;9.158;2023-04-03T09:09:36;7.40;99.90
20759;DHT22;10539;53.686;9.158;2023-04-03T09:12:32;7.40;99.90
20759;DHT22;10539;53.686;9.158;2023-04-03T09:15:20;7.70;99.90
20759;DHT22;10539;53.686;9.158;2023-04-03T09:20:47;7.80;99.90
20759;DHT22;10539;53.686;9.158;2023-04-03T09:23:18;7.90;99.90
20759;DHT22;10539;53.686;9.158;2023-04-03T09:25:45;7.90;99.90
20759;DHT22;10539;53.686;9.158;2023-04-03T09:28:11;8.00;99.90
20759;DHT22;10539;53.686;9.158;2023-04-03T09:30:37;7.90;99.90
20759;DHT22;10539;53.686;9.158;2023-04-03T09:33:04;7.90;99.90
20759;DHT22;10539;53.686;9.158;2023-04-03T09:35:35;7.90;99.90
20759;DHT22;10539;53.686;9.158;2023-04-03T09:38:16;8.00;99.90
20759;DHT22;10539;53.686;9.158;2023-04-03T09:40:50;8.10;99.90
20759;DHT22;10539;53.686;9.158;2023-04-03T09:45:45;8.20;99.90
20759;DHT22;10539;53.686;9.158;2023-04-03T09:48:16;8.40;99.90
20759;DHT22;10539;53.686;9.158;2023-04-03T09:53:39;8.60;99.90
20759;DHT22;10539;53.686;9.158;2023-04-03T09:56:21;8.60;99.90
20759;DHT22;10539;53.686;9.158;2023-04-03T10:01:33;8.60;99.90
20759;DHT22;10539;53.686;9.158;2023-04-03T10:06:36;8.50;99.90
20759;DHT22;10539;53.686;9.158;2023-04-03T10:09:06;8.50;99.90
20759;DHT22;10539;53.686;9.158;2023-04-03T10:12:03;8.60;99.90
20759;DHT22;10539;53.686;9.158;2023-04-03T10:35:28;9.00;99.90
20759;DHT22;10539;53.686;9.158;2023-04-03T10:43:53;9.30;99.90
20759;DHT22;10539;53.686;9.158;2023-04-03T10:46:39;9.30;99.90
20759;DHT22;10539;53.686;9.158;2023-04-03T10:49:52;9.20;99.90
20759;DHT22;10539;53.686;9.158;2023-04-03T10:55:43;9.30;99.90
20759;DHT22;10539;53.686;9.158;2023-04-03T10:57:49;9.30;99.90
20759;DHT22;10539;53.686;9.158;2023-04-03T11:00:21;9.30;99.90
20759;DHT22;10539;53.686;9.158;2023-04-03T11:02:57;9.20;99.90
20759;DHT22;10539;53.686;9.158;2023-04-03T11:05:34;9.20;99.90
20759;DHT22;10539;53.686;9.158;2023-04-03T11:10:40;9.20;99.90
20759;DHT22;10539;53.686;9.158;2023-04-03T11:13:14;9.10;99.90
20759;DHT22;10539;53.686;9.158;2023-04-03T11:15:42;9.10;99.90
20759;DHT22;10539;53.686;9.158;2023-04-03T11:18:13;9.10;99.90
20759;DHT22;10539;53.686;9.158;2023-04-03T11:20:47;9.10;99.90
20759;DHT22;10539;53.686;9.158;2023-04-03T11:23:25;9.20;99.90
20759;DHT22;10539;53.686;9.158;2023-04-03T11:25:54;9.40;99.90
20759;DHT22;10539;53.686;9.158;2023-04-03T11:28:22;9.60;99.90
20759;DHT22;10539;53.686;9.158;2023-04-03T11:31:15;9.60;99.90
20759;DHT22;10539;53.686;9.158;2023-04-03T11:34:49;9.60;99.90
20759;DHT22;10539;53.686;9.158;2023-04-03T11:36:56;9.50;99.90
20759;DHT22;10539;53.686;9.158;2023-04-03T11:39:52;9.40;99.90
20759;DHT22;10539;53.686;9.158;2023-04-03T11:48:41;9.40;99.90
20759;DHT22;10539;53.686;9.158;2023-04-03T11:50:54;9.40;99.90
20759;DHT22;10539;53.686;9.158;2023-04-03T11:53:30;9.50;99.90
20759;DHT22;10539;53.686;9.158;2023-04-03T11:58:30;9.30;99.90
20759;DHT22;10539;53.686;9.158;2023-04-03T12:01:02;9.40;99.90
20759;DHT22;10539;53.686;9.158;2023-04-03T12:09:01;9.50;99.90
20759;DHT22;10539;53.686;9.158;2023-04-03T12:11:30;9.50;99.90
20759;DHT22;10539;53.686;9.158;2023-04-03T12:16:26;9.50;99.90
20759;DHT22;10539;53.686;9.158;2023-04-03T12:24:01;9.40;99.90
20759;DHT22;10539;53.686;9.158;2023-04-03T12:29:20;9.40;99.90
20759;DHT22;10539;53.686;9.158;2023-04-03T12:37:48;9.30;99.90
20759;DHT22;10539;53.686;9.158;2023-04-03T12:40:31;9.50;99.90
20759;DHT22;10539;53.686;9.158;2023-04-03T12:45:56;9.30;99.90
20759;DHT22;10539;53.686;9.158;2023-04-03T12:48:29;9.50;99.90
20759;DHT22;10539;53.686;9.158;2023-04-03T12:50:57;9.60;99.90
20759;DHT22;10539;53.686;9.158;2023-04-03T12:53:29;9.50;99.90
20759;DHT22;10539;53.686;9.158;2023-04-03T12:58:44;9.50;99.90
20759;DHT22;10539;53.686;9.158;2023-04-03T13:01:12;9.60;99.90
20759;DHT22;10539;53.686;9.158;2023-04-03T13:03:43;9.70;99.90
20759;DHT22;10539;53.686;9.158;2023-04-03T13:06:22;9.70;99.90
20759;DHT22;10539;53.686;9.158;2023-04-03T13:08:52;9.70;99.90
20759;DHT22;10539;53.686;9.158;2023-04-03T13:11:20;9.60;99.90
20759;DHT22;10539;53.686;9.158;2023-04-03T13:14:01;9.50;99.90
20759;DHT22;10539;53.686;9.158;2023-04-03T13:16:28;9.40;99.90
20759;DHT22;10539;53.686;9.158;2023-04-03T13:18:55;9.30;99.90
20759;DHT22;10539;53.686;9.158;2023-04-03T13:21:27;9.40;99.90
20759;DHT22;10539;53.686;9.158;2023-04-03T13:23:57;9.50;99.90
20759;DHT22;10539;53.686;9.158;2023-04-03T13:26:28;9.70;99.90
20759;DHT22;10539;53.686;9.158;2023-04-03T13:29:02;9.70;99.90
20759;DHT22;10539;53.686;9.158;2023-04-03T13:31:39;9.70;99.90
20759;DHT22;10539;53.686;9.158;2023-04-03T13:34:13;9.70;99.90
20759;DHT22;10539;53.686;9.158;2023-04-03T13:37:01;9.70;99.90
20759;DHT22;10539;53.686;9.158;2023-04-03T13:39:37;9.60;99.90
20759;DHT22;10539;53.686;9.158;2023-04-03T13:42:23;9.50;99.90
20759;DHT22;10539;53.686;9.158;2023-04-03T13:44:49;9.60;99.90
20759;DHT22;10539;53.686;9.158;2023-04-03T13:47:39;9.60;99.90
20759;DHT22;10539;53.686;9.158;2023-04-03T13:52:45;9.80;99.90
20759;DHT22;10539;53.686;9.158;2023-04-03T13:55:22;9.80;99.90
20759;DHT22;10539;53.686;9.158;2023-04-03T13:57:50;9.60;99.90
20759;DHT22;10539;53.686;9.158;2023-04-03T14:00:33;9.60;99.90
20759;DHT22;10539;53.686;9.158;2023-04-03T14:03:11;9.60;99.90
20759;DHT22;10539;53.686;9.158;2023-04-03T14:05:37;9.60;99.90
20759;DHT22;10539;53.686;9.158;2023-04-03T14:08:03;9.90;99.90
20759;DHT22;10539;53.686;9.158;2023-04-03T14:10:30;9.90;99.90
20759;DHT22;10539;53.686;9.158;2023-04-03T14:12:55;9.90;99.90
20759;DHT22;10539;53.686;9.158;2023-04-03T14:15:26;9.90;99.90
20759;DHT22;10539;53.686;9.158;2023-04-03T14:17:53;9.90;99.90
20759;DHT22;10539;53.686;9.158;2023-04-03T14:20:22;9.80;99.90
20759;DHT22;10539;53.686;9.158;2023-04-03T14:22:49;9.80;99.90
20759;DHT22;10539;53.686;9.158;2023-04-03T14:25:16;9.80;99.90
20759;DHT22;10539;53.686;9.158;2023-04-03T14:27:45;9.80;99.90
20759;DHT22;10539;53.686;9.158;2023-04-03T14:30:19;9.90;99.90
20759;DHT22;10539;53.686;9.158;2023-04-03T14:32:45;10.10;99.90
20759;DHT22;10539;53.686;9.158;2023-04-03T14:35:13;10.20;99.90
20759;DHT22;10539;53.686;9.158;2023-04-03T14:37:39;10.30;99.90
20759;DHT22;10539;53.686;9.158;2023-04-03T14:40:07;10.20;99.90
20759;DHT22;10539;53.686;9.158;2023-04-03T14:42:36;10.10;99.90
20759;DHT22;10539;53.686;9.158;2023-04-03T14:45:06;9.90;99.90
20759;DHT22;10539;53.686;9.158;2023-04-03T14:47:47;9.90;99.90
20759;DHT22;10539;53.686;9.158;2023-04-03T14:50:17;9.90;99.90
20759;DHT22;10539;53.686;9.158;2023-04-03T14:52:44;9.80;99.90
20759;DHT22;10539;53.686;9.158;2023-04-03T14:55:20;9.80;99.90
20759;DHT22;10539;53.686;9.158;2023-04-03T14:57:46;9.80;99.90
20759;DHT22;10539;53.686;9.158;2023-04-03T15:00:20;9.70;99.90
20759;DHT22;10539;53.686;9.158;2023-04-03T15:02:47;9.70;99.90
20759;DHT22;10539;53.686;9.158;2023-04-03T15:05:14;9.70;99.90
20759;DHT22;10539;53.686;9.158;2023-04-03T15:07:52;9.70;99.90
20759;DHT22;10539;53.686;9.158;2023-04-03T15:10:24;9.60;99.90
20759;DHT22;10539;53.686;9.158;2023-04-03T15:12:51;9.70;99.90
20759;DHT22;10539;53.686;9.158;2023-04-03T15:15:19;9.70;99.90
20759;DHT22;10539;53.686;9.158;2023-04-03T15:17:52;9.80;99.90
20759;DHT22;10539;53.686;9.158;2023-04-03T15:20:27;9.90;99.90
20759;DHT22;10539;53.686;9.158;2023-04-03T15:22:53;9.80;99.90
20759;DHT22;10539;53.686;9.158;2023-04-03T15:25:19;9.90;99.90
20759;DHT22;10539;53.686;9.158;2023-04-03T15:27:45;10.00;99.90
20759;DHT22;10539;53.686;9.158;2023-04-03T15:30:16;9.90;99.90
20759;DHT22;10539;53.686;9.158;2023-04-03T15:32:42;9.80;99.90
20759;DHT22;10539;53.686;9.158;2023-04-03T15:35:08;9.90;99.90
20759;DHT22;10539;53.686;9.158;2023-04-03T15:37:34;9.80;99.90
20759;DHT22;10539;53.686;9.158;2023-04-03T15:39:59;9.80;99.90
20759;DHT22;10539;53.686;9.158;2023-04-03T15:42:25;9.70;99.90
20759;DHT22;10539;53.686;9.158;2023-04-03T15:44:51;9.80;99.90
20759;DHT22;10539;53.686;9.158;2023-04-03T15:47:17;9.70;99.90
20759;DHT22;10539;53.686;9.158;2023-04-03T15:49:43;9.70;99.90
20759;DHT22;10539;53.686;9.158;2023-04-03T15:52:09;9.70;99.90
20759;DHT22;10539;53.686;9.158;2023-04-03T15:54:35;9.60;99.90
20759;DHT22;10539;53.686;9.158;2023-04-03T15:57:00;9.60;99.90
20759;DHT22;10539;53.686;9.158;2023-04-03T15:59:26;9.60;99.90
20759;DHT22;10539;53.686;9.158;2023-04-03T16:01:54;9.60;99.90
20759;DHT22;10539;53.686;9.158;2023-04-03T16:04:20;9.70;99.90
20759;DHT22;10539;53.686;9.158;2023-04-03T16:06:46;9.60;99.90
20759;DHT22;10539;53.686;9.158;2023-04-03T16:09:12;9.60;99.90
20759;DHT22;10539;53.686;9.158;2023-04-03T16:11:38;9.60;99.90
20759;DHT22;10539;53.686;9.158;2023-04-03T16:14:06;9.60;99.90
20759;DHT22;10539;53.686;9.158;2023-04-03T16:16:32;9.50;99.90
20759;DHT22;10539;53.686;9.158;2023-04-03T16:18:58;9.40;99.90
20759;DHT22;10539;53.686;9.158;2023-04-03T16:21:24;9.40;99.90
20759;DHT22;10539;53.686;9.158;2023-04-03T16:23:51;9.40;99.90
20759;DHT22;10539;53.686;9.158;2023-04-03T16:26:16;9.30;99.90
20759;DHT22;10539;53.686;9.158;2023-04-03T16:28:43;9.20;99.90
20759;DHT22;10539;53.686;9.158;2023-04-03T16:31:09;9.20;99.90
20759;DHT22;10539;53.686;9.158;2023-04-03T16:33:35;9.10;99.90
20759;DHT22;10539;53.686;9.158;2023-04-03T16:36:04;9.10;99.90
20759;DHT22;10539;53.686;9.158;2023-04-03T16:38:30;9.00;99.90
20759;DHT22;10539;53.686;9.158;2023-04-03T16:40:55;9.00;99.90
20759;DHT22;10539;53.686;9.158;2023-04-03T16:43:26;9.00;99.90
20759;DHT22;10539;53.686;9.158;2023-04-03T16:45:52;9.00;99.90
20759;DHT22;10539;53.686;9.158;2023-04-03T16:48:17;9.10;99.90
20759;DHT22;10539;53.686;9.158;2023-04-03T16:50:46;9.10;99.90
20759;DHT22;10539;53.686;9.158;2023-04-03T16:53:13;9.00;99.90
20759;DHT22;10539;53.686;9.158;2023-04-03T16:55:39;9.00;99.90
20759;DHT22;10539;53.686;9.158;2023-04-03T16:58:05;8.90;99.90
20759;DHT22;10539;53.686;9.158;2023-04-03T17:00:32;8.80;99.90
20759;DHT22;10539;53.686;9.158;2023-04-03T17:02:58;8.70;99.90
20759;DHT22;10539;53.686;9.158;2023-04-03T17:05:24;8.60;99.90
20759;DHT22;10539;53.686;9.158;2023-04-03T17:07:50;8.50;99.90
20759;DHT22;10539;53.686;9.158;2023-04-03T17:10:16;8.50;99.90
20759;DHT22;10539;53.686;9.158;2023-04-03T17:12:42;8.50;99.90
20759;DHT22;10539;53.686;9.158;2023-04-03T17:15:08;8.40;99.90
20759;DHT22;10539;53.686;9.158;2023-04-03T17:17:34;8.30;99.90
20759;DHT22;10539;53.686;9.158;2023-04-03T17:20:01;8.20;99.90
20759;DHT22;10539;53.686;9.158;2023-04-03T17:22:28;8.20;99.90
20759;DHT22;10539;53.686;9.158;2023-04-03T17:24:54;8.20;99.90
20759;DHT22;10539;53.686;9.158;2023-04-03T17:27:20;8.10;99.90